Data for 01/06/2006

Time Sea-Level Adjusted Pressure Absolute Pressure Temperature Relative Humidity Dew Point   
(mb) (inHg) (mb) (inHg) (C) (F) (%) (C) (F)
00:05 1025 30.27 854 25.22 -0.3 31.4 62 -6.7 20
00:10 1025 30.27 854 25.22 -0.1 31.9 62 -6.5 20.4
00:15 1025 30.27 854 25.22 -0.5 31.2 64 -6.4 20.4
00:20 1025 30.27 854 25.22 -0.3 31.5 64 -6.3 20.7
00:25 1025 30.27 854 25.22 -0.5 31.1 61 -7.1 19.2
00:30 1025 30.27 854 25.22 0.4 32.7 57 -7.2 19
00:35 1025 30.27 854 25.22 0.5 32.9 58 -6.9 19.6
00:40 1025 30.27 854 25.22 0.2 32.4 61 -6.4 20.5
00:45 1025 30.27 854 25.22 -1.2 29.9 68 -6.3 20.6
00:50 1025 30.27 854 25.22 -1.2 29.8 66 -6.7 19.9
00:55 1025 30.27 854 25.22 -1.3 29.7 66 -6.8 19.7
01:00 1025 30.27 854 25.22 -1 30.2 66 -6.6 20.1
01:05 1025 30.27 854 25.22 -0.9 30.4 64 -6.8 19.8
01:10 1025 30.27 854 25.22 -0.8 30.5 63 -7 19.5
01:15 1025 30.27 854 25.22 -0.7 30.8 63 -6.9 19.6
01:20 1025 30.27 854 25.22 -0.9 30.5 62 -7.2 19.1
01:25 1025 30.27 854 25.22 -0.7 30.7 62 -7 19.4
01:30 1025 30.27 854 25.22 -0.5 31.2 62 -6.8 19.7
01:35 1025 30.27 854 25.22 -0.4 31.3 62 -6.9 19.6
01:40 1025 30.27 854 25.22 -0.2 31.7 61 -6.9 19.5
01:45 1025 30.27 854 25.22 -0.2 31.7 60 -7.1 19.2
01:50 1025 30.27 854 25.22 -0.2 31.6 60 -7.1 19.1
01:55 1025 30.27 854 25.22 -0.5 31 61 -7 19.3
02:00 1025 30.27 854 25.22 -0.8 30.6 62 -7.2 19.1
02:05 1024 30.24 854 25.22 -0.8 30.6 60 -7.6 18.2
02:10 1024 30.24 854 25.22 -0.9 30.3 62 -7.2 19
02:15 1024 30.24 854 25.22 -0.7 30.8 59 -7.7 18.1
02:20 1024 30.24 854 25.22 0.6 33.2 55 -7.3 18.8
02:25 1024 30.24 854 25.22 0.6 33.1 55 -7.3 18.9
02:30 1025 30.27 854 25.22 0.2 32.4 57 -7.2 19
02:35 1024 30.24 854 25.22 -0.3 31.5 58 -7.6 18.2
02:40 1024 30.24 854 25.22 -0.7 30.7 60 -7.7 18.2
02:45 1024 30.24 854 25.22 -1.2 29.9 61 -7.7 18.1
02:50 1024 30.24 854 25.22 -0.9 30.4 61 -7.4 18.7
02:55 1024 30.24 854 25.22 -0.6 30.9 60 -7.4 18.7
03:00 1024 30.24 853 25.19 -0.6 30.9 59 -7.5 18.4
03:05 1024 30.24 853 25.19 -1.2 29.8 63 -7.4 18.6
03:10 1024 30.24 853 25.19 -1.6 29.1 64 -7.5 18.5
03:15 1024 30.24 853 25.19 -1.4 29.4 62 -7.7 18.2
03:20 1024 30.24 853 25.19 -1 30.2 62 -7.4 18.6
03:25 1024 30.24 853 25.19 -0.3 31.5 59 -7.4 18.7
03:30 1024 30.24 853 25.19 0.2 32.4 58 -7.1 19.2
03:35 1024 30.24 853 25.19 0.2 32.3 57 -7.3 18.9
03:40 1023 30.21 853 25.19 0.4 32.8 55 -7.5 18.5
03:45 1023 30.21 852 25.16 0.8 33.4 55 -7.2 19.1
03:50 1023 30.21 852 25.16 0.7 33.3 55 -7.2 19
03:55 1023 30.21 852 25.16 1.2 34.1 53 -7.3 18.8
04:00 1023 30.21 852 25.16 -0.3 31.5 63 -6.4 20.5
04:05 1023 30.21 853 25.19 -1.1 30.1 62 -7.4 18.6
04:10 1023 30.21 852 25.16 -1.1 30 63 -7.2 19
04:15 1023 30.21 852 25.16 -0.4 31.3 58 -7.8 18
04:20 1023 30.21 852 25.16 0.9 33.5 55 -7.1 19.2
04:25 1023 30.21 852 25.16 -0.3 31.5 61 -6.9 19.7
04:30 1023 30.21 852 25.16 -0.9 30.4 62 -7.2 19
04:35 1023 30.21 852 25.16 -1.1 30.1 63 -7.2 19
04:40 1023 30.21 852 25.16 -1.1 30 62 -7.5 18.5
04:45 1023 30.21 852 25.16 -1.2 29.8 62 -7.5 18.5
04:50 1023 30.21 852 25.16 -1.1 29.9 63 -7.3 18.9
04:55 1023 30.21 852 25.16 -1.3 29.6 65 -7.2 19.1
05:00 1023 30.21 853 25.19 -1.2 29.8 63 -7.3 18.8
05:05 1023 30.21 853 25.19 -0.9 30.5 62 -7.3 18.8
05:10 1023 30.21 853 25.19 -0.8 30.6 61 -7.3 18.9
05:15 1023 30.21 853 25.19 -0.7 30.7 62 -7.2 19
05:20 1023 30.21 853 25.19 -0.6 30.9 60 -7.4 18.7
05:25 1023 30.21 852 25.16 -0.5 31.2 59 -7.5 18.5
05:30 1023 30.21 853 25.19 -0.7 30.8 60 -7.5 18.6
05:35 1023 30.21 853 25.19 -0.3 31.5 58 -7.6 18.3
05:40 1023 30.21 852 25.16 -0.7 30.8 60 -7.6 18.3
05:45 1023 30.21 852 25.16 -0.6 31 61 -7.2 19
05:50 1023 30.21 852 25.16 -0.6 30.8 61 -7.3 18.9
05:55 1023 30.21 852 25.16 -0.6 31 60 -7.3 18.8
06:00 1023 30.21 852 25.16 -0.5 31.1 60 -7.3 18.9
06:05 1023 30.21 852 25.16 -0.6 31 60 -7.3 18.9
06:10 1023 30.21 853 25.19 -0.4 31.3 59 -7.3 18.8
06:15 1023 30.21 853 25.19 -0.2 31.7 59 -7.3 18.9
06:20 1023 30.21 853 25.19 0.4 32.7 56 -7.3 18.8
06:25 1023 30.21 853 25.19 0.5 32.8 56 -7.3 18.8
06:30 1023 30.21 852 25.16 -0.2 31.6 59 -7.2 19
06:35 1023 30.21 852 25.16 -1.1 30 62 -7.4 18.6
06:40 1023 30.21 852 25.16 -1.4 29.5 62 -7.7 18.2
06:45 1023 30.21 852 25.16 -1.1 30 62 -7.6 18.4
06:50 1023 30.21 852 25.16 -0.7 30.7 61 -7.4 18.7
06:55 1023 30.21 852 25.16 -0.2 31.6 60 -7.1 19.2
07:00 1023 30.21 852 25.16 -0.5 31.2 61 -7.1 19.3
07:05 1023 30.21 852 25.16 -0.6 30.9 60 -7.4 18.7
07:10 1023 30.21 852 25.16 -1 30.2 61 -7.7 18.2
07:15 1023 30.21 852 25.16 -0.5 31.2 60 -7.3 18.8
07:20 1023 30.21 852 25.16 -0.5 31.1 60 -7.5 18.6
07:25 1023 30.21 852 25.16 -0.1 31.8 57 -7.6 18.3
07:30 1023 30.21 852 25.16 -0.2 31.7 57 -7.6 18.4
07:35 1023 30.21 852 25.16 -0.4 31.3 59 -7.5 18.6
07:40 1022 30.18 852 25.16 -0.4 31.2 59 -7.5 18.6
07:45 1022 30.18 852 25.16 -0.5 31.1 58 -7.8 18
07:50 1023 30.21 852 25.16 -0.2 31.7 58 -7.5 18.4
07:55 1023 30.21 852 25.16 0 32 58 -7.2 19.1
08:00 1023 30.21 852 25.16 0.3 32.6 57 -7.2 19.1
08:05 1023 30.21 852 25.16 0.7 33.2 56 -7.1 19.1
08:10 1023 30.21 852 25.16 0.7 33.3 55 -7.2 19
08:15 1023 30.21 852 25.16 0.6 33.1 57 -7 19.4
08:20 1023 30.21 852 25.16 0.4 32.7 57 -7.2 19.1
08:25 1022 30.18 852 25.16 0.5 32.8 55 -7.5 18.5
08:30 1022 30.18 852 25.16 0.7 33.2 55 -7.3 18.9
08:35 1022 30.18 852 25.16 0.6 33 56 -7.3 18.9
08:40 1022 30.18 852 25.16 0.7 33.3 55 -7.2 19
08:45 1022 30.18 852 25.16 1.2 34.1 53 -7.3 18.9
08:50 1022 30.18 852 25.16 1.1 34 53 -7.3 18.8
08:55 1022 30.18 852 25.16 1.2 34.2 53 -7.3 18.9
09:00 1022 30.18 852 25.16 1.8 35.2 50 -7.5 18.5
09:05 1022 30.18 852 25.16 2.2 36 50 -7.2 19.1
09:10 1022 30.18 852 25.16 2 35.6 51 -7.2 19.1
09:15 1022 30.18 852 25.16 2.2 36 48 -7.6 18.4
09:20 1022 30.18 852 25.16 3.1 37.6 46 -7.5 18.6
09:25 1022 30.18 852 25.16 2.8 37 47 -7.4 18.7
09:30 1022 30.18 852 25.16 3.4 38 45 -7.5 18.6
09:35 1022 30.18 852 25.16 3.7 38.7 43 -7.8 18
09:40 1022 30.18 852 25.16 3.8 38.8 44 -7.4 18.8
09:45 1022 30.18 851 25.13 3.7 38.7 44 -7.4 18.8
09:50 1022 30.18 851 25.13 3.2 37.8 46 -7.4 18.7
09:55 1022 30.18 851 25.13 3.3 38 44 -7.7 18.1
10:00 1022 30.18 851 25.13 3.8 38.9 42 -7.8 17.9
10:05 1022 30.18 851 25.13 4.3 39.7 41 -8 17.6
10:10 1022 30.18 851 25.13 4.7 40.5 40 -7.7 18.2
10:15 1022 30.18 851 25.13 4.9 40.8 39 -7.9 17.7
10:20 1022 30.18 851 25.13 5.3 41.5 38 -7.8 18
10:25 1022 30.18 851 25.13 5.6 42 36 -8.5 16.7
10:30 1022 30.18 851 25.13 6.5 43.8 36 -7.4 18.6
10:35 1022 30.18 851 25.13 7.1 44.8 35 -7.2 19
10:40 1022 30.18 851 25.13 7.3 45.1 36 -6.9 19.5
10:45 1022 30.18 851 25.13 7.8 46 34 -7.2 19
10:50 1021 30.15 851 25.13 9 48.2 32 -6.7 20
10:55 1021 30.15 851 25.13 9.2 48.6 32 -6.7 20
11:00 1021 30.15 851 25.13 8.9 48.1 33 -6.5 20.3
11:05 1021 30.15 850 25.1 9.2 48.5 32 -6.7 20
11:10 1021 30.15 850 25.1 9.2 48.5 32 -6.7 19.9
11:15 1021 30.15 850 25.1 9.2 48.6 32 -6.8 19.8
11:20 1021 30.15 850 25.1 9.5 49.2 31 -6.7 19.9
11:25 1021 30.15 850 25.1 10.3 50.5 31 -6 21.3
11:30 1021 30.15 850 25.1 9.4 49 33 -6 21.2
11:35 1020 30.12 850 25.1 9.8 49.6 32 -5.9 21.3
11:40 1020 30.12 850 25.1 10.1 50.1 33 -5.5 22.1
11:45 1020 30.12 850 25.1 10.8 51.4 31 -5.6 21.9
11:50 1020 30.12 850 25.1 10.9 51.5 31 -5.4 22.3
11:55 1020 30.12 849 25.07 10.5 50.9 33 -5 22.9
12:00 1020 30.12 849 25.07 10.5 51 33 -5 23.1
12:05 1020 30.12 849 25.07 10.4 50.8 34 -4.5 23.8
12:10 1020 30.12 849 25.07 10.3 50.5 33 -5.1 22.8
12:15 1020 30.12 849 25.07 9.7 49.5 37 -4.4 24.1
12:20 1020 30.12 849 25.07 9.7 49.4 34 -5.4 22.3
12:25 1020 30.12 849 25.07 9.2 48.5 35 -5.3 22.4
12:30 1020 30.12 849 25.07 8.9 48.1 37 -4.8 23.3
12:35 1020 30.12 849 25.07 9.2 48.5 35 -5.6 22
12:40 1020 30.12 849 25.07 9.2 48.6 37 -4.6 23.7
12:45 1019 30.09 849 25.07 9.8 49.7 35 -5.1 22.9
12:50 1019 30.09 849 25.07 9.8 49.7 38 -3.8 25.1
12:55 1019 30.09 848 25.04 9.9 49.8 33 -5.5 22.2
13:00 1019 30.09 848 25.04 10.2 50.4 34 -4.8 23.3
13:05 1019 30.09 848 25.04 10.2 50.3 32 -5.8 21.6
13:10 1019 30.09 848 25.04 9.8 49.7 32 -5.9 21.4
13:15 1019 30.09 848 25.04 9.2 48.5 32 -6.5 20.3
13:20 1019 30.09 848 25.04 9.3 48.7 32 -6.7 20
13:25 1019 30.09 848 25.04 9.1 48.4 31 -7 19.4
13:30 1019 30.09 848 25.04 9.6 49.2 30 -7.3 18.9
13:35 1018 30.06 848 25.04 9.7 49.4 31 -6.8 19.7
13:40 1018 30.06 848 25.04 10 49.9 30 -6.6 20
13:45 1018 30.06 847 25.01 9.9 49.9 31 -6.5 20.3
13:50 1018 30.06 847 25.01 10 49.9 31 -6.5 20.3
13:55 1018 30.06 847 25.01 9.6 49.3 32 -6.4 20.5
14:00 1018 30.06 847 25.01 8.9 48 32 -6.8 19.8
14:05 1018 30.06 847 25.01 8.9 48.1 33 -6.3 20.7
14:10 1018 30.06 847 25.01 9 48.3 35 -5.6 21.8
14:15 1018 30.06 847 25.01 8.8 47.9 34 -6 21.2
14:20 1018 30.06 847 25.01 8.9 48 35 -5.6 21.9
14:25 1018 30.06 847 25.01 9.1 48.5 35 -5.5 22.1
14:30 1018 30.06 847 25.01 9.2 48.6 35 -5.5 22.1
14:35 1018 30.06 847 25.01 9.4 48.8 34 -5.6 22
14:40 1018 30.06 847 25.01 9.3 48.7 32 -6.6 20.1
14:45 1018 30.06 847 25.01 8.7 47.6 31 -7.4 18.6
14:50 1018 30.06 847 25.01 8.9 48.1 31 -7.3 18.8
14:55 1018 30.06 847 25.01 9 48.2 32 -7 19.5
15:00 1018 30.06 847 25.01 8.9 48 32 -7.1 19.3
15:05 1018 30.06 847 25.01 9.2 48.6 33 -6.3 20.7
15:10 1017 30.03 847 25.01 8.9 48.1 35 -5.6 21.9
15:15 1017 30.03 847 25.01 8.8 47.8 39 -4.5 23.9
15:20 1017 30.03 847 25.01 8.6 47.4 37 -5.2 22.6
15:25 1017 30.03 847 25.01 8.2 46.7 37 -5.5 22.1
15:30 1017 30.03 847 25.01 8.2 46.8 34 -6.6 20.1
15:35 1017 30.03 847 25.01 8.2 46.8 35 -6.5 20.3
15:40 1017 30.03 847 25.01 8.2 46.7 37 -5.7 21.8
15:45 1017 30.03 847 25.01 7.9 46.2 39 -5.3 22.5
15:50 1017 30.03 847 25.01 7.6 45.8 39 -5.4 22.3
15:55 1017 30.03 847 25.01 7.8 46.1 41 -4.5 24
16:00 1018 30.06 847 25.01 7.3 45.1 40 -5.3 22.5
16:05 1017 30.03 847 25.01 7.2 45 44 -4.3 24.2
16:10 1017 30.03 847 25.01 7 44.6 44 -4.5 23.9
16:15 1017 30.03 847 25.01 6.4 43.5 41 -6.1 21.1
16:20 1017 30.03 847 25.01 6.6 43.9 43 -5.2 22.7
16:25 1017 30.03 847 25.01 6.2 43.2 44 -5.2 22.7
16:30 1017 30.03 847 25.01 5.8 42.5 45 -5.3 22.5
16:35 1017 30.03 847 25.01 5.4 41.8 48 -4.8 23.4
16:40 1017 30.03 847 25.01 5.1 41.1 49 -4.9 23.2
16:45 1018 30.06 847 25.01 5.3 41.6 41 -6.8 19.7
16:50 1017 30.03 847 25.01 5.8 42.5 44 -5.6 22
16:55 1017 30.03 847 25.01 6.1 43 43 -5.5 22.1
17:00 1017 30.03 847 25.01 5.1 41.2 47 -5.4 22.3
17:05 1017 30.03 847 25.01 5.1 41.3 45 -5.9 21.4
17:10 1017 30.03 847 25.01 5.9 42.5 43 -5.9 21.4
17:15 1017 30.03 847 25.01 4.7 40.4 51 -4.5 23.9
17:20 1017 30.03 847 25.01 4 39.2 53 -4.6 23.7
17:25 1017 30.03 846 24.98 3.3 37.9 47 -6.8 19.7
17:30 1017 30.03 846 24.98 4.9 40.8 48 -5.2 22.6
17:35 1017 30.03 846 24.98 4.4 39.9 43 -7.2 19.1
17:40 1017 30.03 846 24.98 5.2 41.4 47 -5.2 22.7
17:45 1017 30.03 846 24.98 4.2 39.6 45 -6.6 20.2
17:50 1017 30.03 846 24.98 4.3 39.7 46 -6.3 20.6
17:55 1017 30.03 846 24.98 4.3 39.8 50 -5.2 22.6
18:00 1017 30.03 846 24.98 3.8 38.8 45 -7.1 19.2
18:05 1017 30.03 846 24.98 4.2 39.5 46 -6.4 20.4
18:10 1017 30.03 846 24.98 3.7 38.6 48 -6.3 20.7
18:15 1017 30.03 846 24.98 4 39.3 47 -6.3 20.7
18:20 1017 30.03 846 24.98 3.7 38.6 45 -7.2 19.1
18:25 1017 30.03 846 24.98 3.6 38.5 51 -5.7 21.8
18:30 1017 30.03 846 24.98 3.4 38.2 48 -6.6 20.1
18:35 1017 30.03 846 24.98 3 37.5 53 -5.7 21.8
18:40 1017 30.03 846 24.98 3 37.4 48 -7 19.5
18:45 1017 30.03 846 24.98 4 39.3 48 -6.1 21
18:50 1017 30.03 846 24.98 4.2 39.6 41 -7.9 17.8
18:55 1016 30 846 24.98 4.2 39.5 45 -6.6 20.1
19:00 1016 30 846 24.98 4.5 40.1 40 -7.8 17.9
19:05 1016 30 846 24.98 5 41 43 -6.5 20.3
19:10 1016 30 846 24.98 4.1 39.4 43 -7.5 18.5
19:15 1016 30 845 24.95 4.4 39.9 39 -8.3 17.1
19:20 1016 30 845 24.95 4.6 40.3 41 -7.5 18.4
19:25 1016 30 845 24.95 4.1 39.4 44 -7.1 19.3
19:30 1016 30 845 24.95 3.5 38.4 46 -7.1 19.2
19:35 1016 30 845 24.95 3.4 38.2 44 -7.6 18.2
19:40 1016 30 845 24.95 3.2 37.7 46 -7.3 18.8
19:45 1016 30 845 24.95 3 37.4 46 -7.4 18.6
19:50 1016 30 845 24.95 3.2 37.7 45 -7.6 18.2
19:55 1016 30 845 24.95 3.4 38.1 45 -7.5 18.5
20:00 1016 30 845 24.95 3.3 38 45 -7.6 18.3
20:05 1016 30 845 24.95 3.4 38.1 45 -7.4 18.6
20:10 1016 30 845 24.95 3.2 37.8 47 -7 19.4
20:15 1016 30 845 24.95 3.2 37.7 45 -7.7 18.1
20:20 1016 30 845 24.95 3.2 37.8 45 -7.5 18.5
20:25 1016 30 845 24.95 3.2 37.7 45 -7.6 18.2
20:30 1016 30 845 24.95 3.4 38.1 43 -7.9 17.8
20:35 1015 29.97 845 24.95 3.9 39 43 -7.7 18.2
20:40 1015 29.97 844 24.92 3.5 38.3 43 -7.8 17.9
20:45 1015 29.97 844 24.92 3.2 37.7 45 -7.7 18.1
20:50 1015 29.97 844 24.92 2.7 36.9 45 -7.9 17.8
20:55 1015 29.97 844 24.92 3 37.4 42 -8.6 16.6
21:00 1015 29.97 844 24.92 2.6 36.7 46 -7.9 17.8
21:05 1015 29.97 844 24.92 2.5 36.5 45 -8.2 17.2
21:10 1015 29.97 844 24.92 3.2 37.8 44 -8 17.6
21:15 1015 29.97 844 24.92 3.3 38 43 -8 17.6
21:20 1015 29.97 844 24.92 3.4 38.2 43 -7.9 17.8
21:25 1015 29.97 844 24.92 3.4 38.2 43 -7.9 17.7
21:30 1015 29.97 844 24.92 3.7 38.7 42 -8.1 17.4
21:35 1015 29.97 844 24.92 3.6 38.5 43 -7.9 17.8
21:40 1014 29.94 844 24.92 3.2 37.7 44 -8 17.7
21:45 1014 29.94 844 24.92 3.1 37.5 44 -8 17.7
21:50 1014 29.94 843 24.89 3.4 38.1 44 -7.9 17.8
21:55 1014 29.94 843 24.89 3.4 38.2 43 -8.1 17.4
22:00 1014 29.94 843 24.89 3.8 38.8 42 -8 17.6
22:05 1014 29.94 843 24.89 3.6 38.4 43 -8 17.6
22:10 1014 29.94 843 24.89 3.5 38.3 43 -7.9 17.7
22:15 1014 29.94 843 24.89 3.5 38.2 44 -7.6 18.3
22:20 1014 29.94 843 24.89 3 37.4 45 -7.8 18
22:25 1014 29.94 843 24.89 3.4 38.1 43 -8 17.5
22:30 1014 29.94 843 24.89 3.7 38.7 43 -7.8 18
22:35 1014 29.94 843 24.89 3.8 38.8 41 -8.2 17.2
22:40 1014 29.94 843 24.89 3.9 39 41 -8.4 17
22:45 1014 29.94 843 24.89 4.3 39.7 40 -8.3 17.1
22:50 1013 29.91 843 24.89 4.3 39.7 40 -8 17.5
22:55 1013 29.91 843 24.89 4.2 39.6 41 -8 17.5
23:00 1013 29.91 843 24.89 4.1 39.4 40 -8.3 17.1
23:05 1013 29.91 842 24.86 4.1 39.4 40 -8.3 17.1
23:10 1013 29.91 842 24.86 4.1 39.3 40 -8.3 17.1
23:15 1013 29.91 842 24.86 3.8 38.9 42 -7.9 17.7
23:20 1013 29.91 842 24.86 3.3 38 45 -7.4 18.8
23:25 1013 29.91 842 24.86 3.1 37.5 46 -7.5 18.5
23:30 1013 29.91 842 24.86 2.2 36 52 -6.6 20.1
23:35 1013 29.91 842 24.86 1.2 34.2 55 -6.8 19.8
23:40 1013 29.91 842 24.86 1.2 34.2 54 -7.1 19.2
23:45 1013 29.91 842 24.86 1.2 34.1 55 -6.9 19.6
23:50 1013 29.91 842 24.86 1.1 33.9 55 -7 19.4
23:55 1013 29.91 842 24.86 1.3 34.4 53 -7.2 19
24:00 1013 29.91 842 24.86 2.7 36.9 44 -8.4 16.9